Time;durP1;ratioP1;P1;durP2;ratioP2;P2;SDS_P1;SDS_P2;PMS_P1;PMS_P2;Temp;Humidity;BMP_temperature;BMP_pressure;BME280_temperature;BME280_humidity;BME280_pressure;Samples;Min_cycle;Max_cycle;Signal;HPM_P1;HPM_P2
2022/12/07 00:00:17;;;;;;;;;;;;;;;-3.68;84.69;100651.88;4993605;28;19914;-68
2022/12/07 00:02:42;;;;;;;;;;;;;;;-3.67;84.89;100654.41;4993744;28;20056;-67
2022/12/07 00:05:07;;;;;;;;;;;;;;;-3.69;84.37;100645.81;4993730;28;20004;-67
2022/12/07 00:07:33;;;;;;;;;;;;;;;-3.71;84.50;100639.81;4993623;28;19921;-67
2022/12/07 00:09:58;;;;;;;;;;;;;;;-3.74;85.01;100646.09;4993641;28;20005;-67
2022/12/07 00:12:25;;;;;;;;;;;;;;;-3.79;84.25;100647.31;4992715;28;20715;-68
2022/12/07 00:14:53;;;;;;;;;;;;;;;-3.84;84.05;100642.38;4993419;28;20004;-67
2022/12/07 00:17:18;;;;;;;;;;;;;;;-3.86;82.96;100638.13;4992983;28;20362;-68
2022/12/07 00:19:44;;;;;;;;;;;;;;;-3.91;82.90;100638.44;4993153;28;19953;-67
2022/12/07 00:22:15;;;;;;;;;;;;;;;-3.94;82.53;100644.72;4993397;28;19937;-68
2022/12/07 00:24:40;;;;;;;;;;;;;;;-4.02;82.29;100641.72;4993564;28;20301;-67
2022/12/07 00:27:05;;;;;;;;;;;;;;;-4.10;82.70;100646.63;4993293;28;19914;-67
2022/12/07 00:29:30;;;;;;;;;;;;;;;-4.18;82.70;100641.84;4993071;28;20326;-67
2022/12/07 00:31:56;;;;;;;;;;;;;;;-4.26;83.12;100640.63;4992919;28;20297;-67
2022/12/07 00:34:21;;;;;;;;;;;;;;;-4.34;83.01;100636.69;4992654;28;19917;-67
2022/12/07 00:36:47;;;;;;;;;;;;;;;-4.32;82.50;100636.59;4992722;28;19971;-68
2022/12/07 00:39:13;;;;;;;;;;;;;;;-4.31;81.88;100633.03;4993221;28;19914;-67
2022/12/07 00:41:38;;;;;;;;;;;;;;;-4.31;81.92;100635.66;4992134;28;19918;-68
2022/12/07 00:44:03;;;;;;;;;;;;;;;-4.32;80.92;100636.59;4992863;28;19944;-67
2022/12/07 00:46:29;;;;;;;;;;;;;;;-4.40;80.49;100638.84;4992743;28;19917;-67
2022/12/07 00:48:55;;;;;;;;;;;;;;;-4.56;79.83;100642.41;4992555;28;19925;-67
2022/12/07 00:51:22;;;;;;;;;;;;;;;-4.70;81.33;100645.84;4992368;28;20346;-67
2022/12/07 00:53:47;;;;;;;;;;;;;;;-4.80;82.21;100649.94;4992429;28;19914;-67
2022/12/07 00:56:14;;;;;;;;;;;;;;;-4.87;82.24;100645.97;4992672;28;20250;-67
2022/12/07 00:58:39;;;;;;;;;;;;;;;-4.94;82.81;100644.66;4992683;28;19921;-67
2022/12/07 01:01:06;;;;;;;;;;;;;;;-4.89;82.39;100640.84;4992405;28;19914;-67
2022/12/07 01:03:31;;;;;;;;;;;;;;;-4.92;81.84;100641.03;4992682;28;19920;-67
2022/12/07 01:05:57;;;;;;;;;;;;;;;-4.94;81.53;100637.66;4992582;28;19914;-67
2022/12/07 01:08:23;;;;;;;;;;;;;;;-4.98;80.88;100643.16;4992528;28;20013;-67
2022/12/07 01:10:48;;;;;;;;;;;;;;;-5.06;80.30;100644.44;4992643;28;19914;-67
2022/12/07 01:13:14;;;;;;;;;;;;;;;-5.07;80.20;100637.53;4992635;28;19918;-67
2022/12/07 01:15:43;;;;;;;;;;;;;;;-5.16;79.43;100634.59;4992406;28;19914;-68
2022/12/07 01:18:08;;;;;;;;;;;;;;;-5.13;80.02;100639.66;4992413;28;19933;-68
2022/12/07 01:20:33;;;;;;;;;;;;;;;-5.14;79.66;100636.19;4992213;28;20394;-68
2022/12/07 01:22:59;;;;;;;;;;;;;;;-5.15;79.47;100637.13;4992564;28;19921;-68
2022/12/07 01:25:24;;;;;;;;;;;;;;;-5.27;79.03;100636.06;4992077;28;19914;-68
2022/12/07 01:27:50;;;;;;;;;;;;;;;-5.38;79.65;100646.28;4991820;28;19929;-68
2022/12/07 01:30:15;;;;;;;;;;;;;;;-5.40;79.97;100644.69;4992267;28;19921;-68
2022/12/07 01:32:41;;;;;;;;;;;;;;;-5.41;79.33;100643.00;4992422;28;19953;-68
2022/12/07 01:35:06;;;;;;;;;;;;;;;-5.58;80.22;100643.97;4992357;28;19960;-68
2022/12/07 01:37:35;;;;;;;;;;;;;;;-5.74;80.04;100646.56;4999873;28;19921;-68
2022/12/07 01:40:02;;;;;;;;;;;;;;;-5.88;80.14;100649.97;5011532;28;20011;-67
2022/12/07 01:42:27;;;;;;;;;;;;;;;-5.90;81.54;100641.34;4994789;28;20346;-67
2022/12/07 01:45:12;;;;;;;;;;;;;;;-5.86;81.06;100637.63;4991916;28;19914;-68
2022/12/07 01:47:37;;;;;;;;;;;;;;;-5.86;81.25;100630.63;4996070;28;19918;-68
2022/12/07 01:50:02;;;;;;;;;;;;;;;-5.86;80.86;100632.41;4995462;28;20594;-68
2022/12/07 01:52:30;;;;;;;;;;;;;;;-5.98;81.12;100641.81;4995553;28;19925;-67
2022/12/07 01:55:00;;;;;;;;;;;;;;;-6.02;81.78;100635.03;5000517;28;19983;-67
2022/12/07 01:57:25;;;;;;;;;;;;;;;-6.08;81.31;100638.00;5014982;28;19913;-67
2022/12/07 01:59:52;;;;;;;;;;;;;;;-6.13;81.28;100635.63;5014627;28;20262;-67
2022/12/07 02:02:18;;;;;;;;;;;;;;;-6.21;81.62;100637.81;5014940;28;19913;-68
2022/12/07 02:04:45;;;;;;;;;;;;;;;-6.23;81.08;100635.25;5014848;28;19921;-68
2022/12/07 02:07:10;;;;;;;;;;;;;;;-6.16;81.27;100627.13;5014848;28;19914;-68
2022/12/07 02:09:35;;;;;;;;;;;;;;;-6.17;80.43;100634.09;5014627;28;19999;-68
2022/12/07 02:12:01;;;;;;;;;;;;;;;-6.20;79.83;100628.19;5001002;28;19914;-67
2022/12/07 02:14:26;;;;;;;;;;;;;;;-6.16;79.80;100622.72;4995423;28;19913;-69
2022/12/07 02:16:57;;;;;;;;;;;;;;;-6.16;78.48;100625.34;4995412;28;20562;-67
2022/12/07 02:19:41;;;;;;;;;;;;;;;-6.24;78.68;100619.66;4995101;28;19949;-68
2022/12/07 02:22:09;;;;;;;;;;;;;;;-6.40;78.92;100617.03;4994721;28;20549;-68
2022/12/07 02:24:49;;;;;;;;;;;;;;;-6.51;78.67;100616.75;4994696;28;19913;-68
2022/12/07 02:27:26;;;;;;;;;;;;;;;-6.68;78.82;100615.03;4994805;28;19991;-67
2022/12/07 02:29:54;;;;;;;;;;;;;;;-6.80;80.07;100611.28;4994795;28;20401;-67
2022/12/07 02:32:31;;;;;;;;;;;;;;;-6.91;80.10;100606.63;4995023;28;20357;-68
2022/12/07 02:35:05;;;;;;;;;;;;;;;-6.95;80.98;100610.28;5012045;28;20421;-68
2022/12/07 02:37:36;;;;;;;;;;;;;;;-6.90;81.39;100610.91;4997838;28;20395;-68
2022/12/07 02:40:10;;;;;;;;;;;;;;;-6.87;80.14;100615.13;4993411;28;19921;-68
2022/12/07 02:42:40;;;;;;;;;;;;;;;-6.89;80.39;100614.34;4995201;28;19920;-68
2022/12/07 02:45:06;;;;;;;;;;;;;;;-6.96;79.81;100603.41;4995416;28;19960;-68
2022/12/07 02:47:33;;;;;;;;;;;;;;;-7.06;79.47;100603.00;4994989;28;19936;-68
2022/12/07 02:49:59;;;;;;;;;;;;;;;-7.12;79.39;100608.53;4994687;28;19945;-67
2022/12/07 02:52:24;;;;;;;;;;;;;;;-6.98;79.99;100605.25;4994756;28;19949;-68
2022/12/07 02:54:49;;;;;;;;;;;;;;;-7.01;79.53;100608.00;4994685;28;20393;-68
2022/12/07 02:57:22;;;;;;;;;;;;;;;-7.05;81.13;100604.69;4993398;28;20401;-69
2022/12/07 03:00:07;;;;;;;;;;;;;;;-7.08;81.56;100598.78;4995123;28;19913;-68
2022/12/07 03:02:45;;;;;;;;;;;;;;;-7.16;81.84;100604.41;4994927;28;19914;-68
2022/12/07 03:05:28;;;;;;;;;;;;;;;-7.25;82.33;100591.81;4994878;28;19960;-68
2022/12/07 03:07:57;;;;;;;;;;;;;;;-7.25;83.23;100592.66;4994594;28;20430;-68
2022/12/07 03:10:41;;;;;;;;;;;;;;;-7.26;82.51;100596.19;4994670;28;19914;-68
2022/12/07 03:13:17;;;;;;;;;;;;;;;-7.33;82.38;100601.78;4993463;28;20255;-67
2022/12/07 03:15:45;;;;;;;;;;;;;;;-7.40;82.93;100603.84;4994921;28;19946;-67
2022/12/07 03:18:12;;;;;;;;;;;;;;;-7.48;82.53;100603.38;4994476;28;20420;-68
2022/12/07 03:20:39;;;;;;;;;;;;;;;-7.56;82.35;100593.31;4994279;28;20362;-68
2022/12/07 03:23:09;;;;;;;;;;;;;;;-7.57;82.13;100585.59;4994136;28;19940;-67
2022/12/07 03:25:39;;;;;;;;;;;;;;;-7.55;82.89;100592.41;4992698;28;20380;-67
2022/12/07 03:28:05;;;;;;;;;;;;;;;-7.58;82.64;100592.53;4994026;28;19968;-68
2022/12/07 03:30:52;;;;;;;;;;;;;;;-7.63;83.00;100592.78;5005198;28;19918;-68
2022/12/07 03:33:27;;;;;;;;;;;;;;;-7.69;82.95;100581.78;4994327;28;19913;-68
2022/12/07 03:35:59;;;;;;;;;;;;;;;-7.71;83.24;100579.25;4992907;28;20012;-68
2022/12/07 03:38:47;;;;;;;;;;;;;;;-7.74;83.33;100584.63;4994468;28;20247;-68
2022/12/07 03:41:23;;;;;;;;;;;;;;;-7.72;83.04;100577.59;4990607;28;20000;-68
2022/12/07 03:43:49;;;;;;;;;;;;;;;-7.63;82.50;100577.13;4993845;28;19968;-68
2022/12/07 03:46:18;;;;;;;;;;;;;;;-7.67;81.91;100586.03;4992701;28;19914;-69
2022/12/07 03:48:50;;;;;;;;;;;;;;;-7.70;82.99;100580.13;4993811;28;20358;-69
2022/12/07 03:51:20;;;;;;;;;;;;;;;-7.74;82.63;100579.41;4993703;28;19960;-68
2022/12/07 03:53:54;;;;;;;;;;;;;;;-7.79;82.98;100584.00;4993187;28;19922;-68
2022/12/07 03:56:20;;;;;;;;;;;;;;;-7.83;83.48;100579.84;4993077;28;19928;-68
2022/12/07 03:58:46;;;;;;;;;;;;;;;-7.84;84.05;100585.97;4993306;28;19913;-68
2022/12/07 04:01:11;;;;;;;;;;;;;;;-7.84;83.75;100580.75;4993859;28;19914;-68
2022/12/07 04:03:36;;;;;;;;;;;;;;;-7.92;83.15;100578.53;4993496;28;19921;-68
2022/12/07 04:06:04;;;;;;;;;;;;;;;-7.98;82.69;100571.00;4993829;28;19917;-67
2022/12/07 04:08:29;;;;;;;;;;;;;;;-8.03;83.15;100580.81;4992758;28;20245;-68
2022/12/07 04:10:55;;;;;;;;;;;;;;;-7.97;82.91;100583.09;4993221;28;19920;-67
2022/12/07 04:13:20;;;;;;;;;;;;;;;-7.94;83.53;100575.16;4991957;28;19914;-67
2022/12/07 04:15:45;;;;;;;;;;;;;;;-7.95;83.20;100576.06;4991999;28;19914;-67
2022/12/07 04:18:11;;;;;;;;;;;;;;;-7.99;83.32;100570.16;4993253;28;19921;-68
2022/12/07 04:20:36;;;;;;;;;;;;;;;-7.95;83.32;100565.63;4993316;28;19920;-68
2022/12/07 04:23:02;;;;;;;;;;;;;;;-7.92;82.86;100559.44;4993025;28;19913;-68
2022/12/07 04:25:28;;;;;;;;;;;;;;;-7.92;83.02;100551.63;4993645;28;19964;-68
2022/12/07 04:27:53;;;;;;;;;;;;;;;-7.85;82.36;100547.81;5012139;28;20703;-68
2022/12/07 04:30:19;;;;;;;;;;;;;;;-7.80;81.90;100546.66;5012611;28;19920;-67
2022/12/07 04:32:44;;;;;;;;;;;;;;;-7.63;81.58;100551.06;4994325;28;19924;-68
2022/12/07 04:35:09;;;;;;;;;;;;;;;-7.51;80.60;100553.97;4993458;28;19924;-68
2022/12/07 04:37:34;;;;;;;;;;;;;;;-7.45;79.71;100548.44;4992290;28;19914;-68
2022/12/07 04:40:00;;;;;;;;;;;;;;;-7.42;79.51;100553.53;4992540;28;19914;-67
2022/12/07 04:42:25;;;;;;;;;;;;;;;-7.45;79.19;100556.28;4993196;28;19926;-67
2022/12/07 04:44:50;;;;;;;;;;;;;;;-7.55;79.14;100544.63;4991651;28;19980;-67
2022/12/07 04:47:16;;;;;;;;;;;;;;;-7.65;79.48;100541.59;4993170;28;19917;-67
2022/12/07 04:49:43;;;;;;;;;;;;;;;-7.70;79.33;100544.47;4992799;28;19918;-67
2022/12/07 04:52:09;;;;;;;;;;;;;;;-7.74;79.74;100540.31;4992752;28;19921;-68
2022/12/07 04:54:34;;;;;;;;;;;;;;;-7.73;79.68;100535.94;4992672;28;19914;-68
2022/12/07 04:57:00;;;;;;;;;;;;;;;-7.74;79.41;100539.44;4992554;28;19914;-68
2022/12/07 04:59:25;;;;;;;;;;;;;;;-7.81;79.35;100539.75;4993075;28;19935;-67
2022/12/07 05:01:50;;;;;;;;;;;;;;;-7.91;79.21;100530.72;4992771;28;19922;-67
2022/12/07 05:04:17;;;;;;;;;;;;;;;-7.99;79.80;100531.06;4992949;28;19984;-67
2022/12/07 05:06:43;;;;;;;;;;;;;;;-8.01;80.05;100529.44;4991181;28;19957;-67
2022/12/07 05:09:08;;;;;;;;;;;;;;;-8.08;80.29;100534.09;4992259;28;20444;-68
2022/12/07 05:11:39;;;;;;;;;;;;;;;-8.08;80.27;100534.09;4992347;28;19945;-68
2022/12/07 05:14:09;;;;;;;;;;;;;;;-8.08;80.22;100528.06;4992213;28;19918;-68
2022/12/07 05:16:34;;;;;;;;;;;;;;;-8.12;80.33;100540.38;4992212;28;19959;-68
2022/12/07 05:19:00;;;;;;;;;;;;;;;-8.13;80.31;100532.63;4992102;28;19922;-68
2022/12/07 05:21:25;;;;;;;;;;;;;;;-8.17;80.06;100531.97;4994147;28;19913;-68
2022/12/07 05:23:51;;;;;;;;;;;;;;;-8.13;80.25;100528.28;5014260;28;20419;-67
2022/12/07 05:26:16;;;;;;;;;;;;;;;-8.18;79.87;100536.31;5013154;28;19930;-68
2022/12/07 05:28:42;;;;;;;;;;;;;;;-8.18;80.29;100536.31;4996531;28;19925;-68
2022/12/07 05:31:07;;;;;;;;;;;;;;;-8.24;80.14;100536.59;4996449;28;19914;-67
2022/12/07 05:33:34;;;;;;;;;;;;;;;-8.29;80.46;100532.53;4996477;28;19924;-67
2022/12/07 05:36:05;;;;;;;;;;;;;;;-8.32;81.20;100527.44;4996323;28;19918;-68
2022/12/07 05:38:32;;;;;;;;;;;;;;;-8.34;81.69;100529.28;4996460;28;19940;-68
2022/12/07 05:41:01;;;;;;;;;;;;;;;-8.39;81.78;100527.75;4995834;28;19969;-68
2022/12/07 05:43:26;;;;;;;;;;;;;;;-8.40;81.71;100535.63;4996286;28;19918;-68
2022/12/07 05:45:51;;;;;;;;;;;;;;;-8.48;81.90;100528.19;4996402;28;20381;-67
2022/12/07 05:48:16;;;;;;;;;;;;;;;-8.46;82.33;100534.19;4995815;28;19925;-67
2022/12/07 05:50:42;;;;;;;;;;;;;;;-8.47;82.07;100532.47;4995732;28;20318;-68
2022/12/07 05:53:07;;;;;;;;;;;;;;;-8.50;82.54;100529.19;4995906;28;19921;-67
2022/12/07 05:55:32;;;;;;;;;;;;;;;-8.58;82.03;100529.53;4995553;28;19980;-68
2022/12/07 06:00:41;;;;;;;;;;;;;;;-8.65;82.67;100535.94;4995845;28;20000;-67
2022/12/07 06:03:06;;;;;;;;;;;;;;;-8.69;82.78;100545.66;4995932;28;19957;-67
2022/12/07 06:05:32;;;;;;;;;;;;;;;-8.71;82.65;100547.47;4996231;28;19921;-66
2022/12/07 06:07:57;;;;;;;;;;;;;;;-8.72;83.10;100550.16;4995576;28;20345;-67
2022/12/07 06:10:22;;;;;;;;;;;;;;;-8.66;83.04;100547.25;4995858;28;20034;-67
2022/12/07 06:12:47;;;;;;;;;;;;;;;-8.62;83.17;100535.78;4994323;28;19925;-68
2022/12/07 06:15:13;;;;;;;;;;;;;;;-8.66;82.24;100542.88;4995944;28;19932;-68
2022/12/07 06:17:38;;;;;;;;;;;;;;;-8.61;82.79;100533.13;4994475;28;19961;-68
2022/12/07 06:20:04;;;;;;;;;;;;;;;-8.59;82.29;100535.66;5013651;28;19921;-68
2022/12/07 06:22:29;;;;;;;;;;;;;;;-8.61;82.18;100530.50;5014920;28;19937;-69
2022/12/07 06:24:54;;;;;;;;;;;;;;;-8.58;81.70;100529.53;5015065;28;19990;-68
2022/12/07 06:27:20;;;;;;;;;;;;;;;-8.54;81.70;100535.44;5014717;28;19920;-68
2022/12/07 06:29:45;;;;;;;;;;;;;;;-8.59;81.96;100531.28;4995414;28;19918;-67
2022/12/07 06:32:11;;;;;;;;;;;;;;;-8.61;81.46;100520.09;4993979;28;19964;-67
2022/12/07 06:34:36;;;;;;;;;;;;;;;-8.60;81.43;100528.75;4995365;28;19913;-67
2022/12/07 06:37:02;;;;;;;;;;;;;;;-8.59;81.78;100520.03;4994996;28;19920;-67
2022/12/07 06:39:28;;;;;;;;;;;;;;;-8.62;81.00;100525.38;4994268;28;20410;-67
2022/12/07 06:41:53;;;;;;;;;;;;;;;-8.73;80.92;100532.81;4994764;28;19945;-67
2022/12/07 06:44:19;;;;;;;;;;;;;;;-8.72;81.67;100535.38;4977620;28;19965;-67
2022/12/07 06:46:44;;;;;;;;;;;;;;;-8.77;81.59;100540.75;4994950;28;19914;-67
2022/12/07 06:49:10;;;;;;;;;;;;;;;-8.83;81.66;100532.41;4994751;28;20281;-67
2022/12/07 06:51:36;;;;;;;;;;;;;;;-8.90;81.95;100529.22;4995311;28;19920;-68
2022/12/07 06:54:02;;;;;;;;;;;;;;;-8.89;82.18;100533.53;4994934;28;19997;-68
2022/12/07 06:56:28;;;;;;;;;;;;;;;-8.90;81.64;100533.59;4994684;28;19920;-67
2022/12/07 06:58:53;;;;;;;;;;;;;;;-8.97;81.92;100530.41;4994436;28;19976;-67
2022/12/07 07:01:19;;;;;;;;;;;;;;;-9.04;81.93;100524.63;4994739;28;19918;-67
2022/12/07 07:03:45;;;;;;;;;;;;;;;-9.06;82.69;100525.59;4994733;28;20247;-67
2022/12/07 07:06:10;;;;;;;;;;;;;;;-9.06;82.89;100516.06;4994764;28;19914;-68
2022/12/07 07:08:38;;;;;;;;;;;;;;;-9.06;82.82;100526.47;4993629;28;19922;-68
2022/12/07 07:11:04;;;;;;;;;;;;;;;-9.07;82.72;100529.13;4994557;28;19940;-68
2022/12/07 07:13:29;;;;;;;;;;;;;;;-9.08;82.59;100535.22;4994484;28;20318;-67
2022/12/07 07:15:55;;;;;;;;;;;;;;;-9.09;82.19;100536.16;5009006;28;19924;-68
2022/12/07 07:18:20;;;;;;;;;;;;;;;-9.06;82.29;100536.88;4997275;28;19922;-69
2022/12/07 07:20:46;;;;;;;;;;;;;;;-9.09;82.08;100531.78;4994365;28;19924;-67
2022/12/07 07:23:11;;;;;;;;;;;;;;;-9.13;82.53;100542.41;4994014;28;19933;-67
2022/12/07 07:25:37;;;;;;;;;;;;;;;-9.09;82.95;100530.94;4993788;28;20474;-68
2022/12/07 07:28:02;;;;;;;;;;;;;;;-9.15;82.79;100527.69;4994012;28;19918;-68
2022/12/07 07:30:31;;;;;;;;;;;;;;;-9.19;82.77;100533.09;4994045;28;20262;-68
2022/12/07 07:33:00;;;;;;;;;;;;;;;-9.22;83.01;100528.88;4994038;28;19914;-68
2022/12/07 07:35:26;;;;;;;;;;;;;;;-9.27;83.02;100536.00;4994262;28;20472;-67
2022/12/07 07:37:51;;;;;;;;;;;;;;;-9.30;82.95;100543.09;4994088;28;20000;-68
2022/12/07 07:40:16;;;;;;;;;;;;;;;-9.34;83.23;100539.81;4991193;28;19961;-69
2022/12/07 07:42:42;;;;;;;;;;;;;;;-9.29;83.82;100544.81;5002935;28;19964;-69
2022/12/07 07:45:08;;;;;;;;;;;;;;;-8.99;84.11;100540.88;5000367;28;19933;-68
2022/12/07 07:47:33;;;;;;;;;;;;;;;-8.85;83.31;100548.06;5011641;28;20004;-68
2022/12/07 07:49:58;;;;;;;;;;;;;;;-8.60;82.38;100536.56;4994348;28;19949;-68
2022/12/07 07:52:23;;;;;;;;;;;;;;;-8.57;81.21;100534.66;4993293;28;19949;-67
2022/12/07 07:54:48;;;;;;;;;;;;;;;-8.66;80.90;100532.47;4992874;28;19921;-67
2022/12/07 07:57:15;;;;;;;;;;;;;;;-8.80;80.49;100529.66;4992973;28;19936;-66
2022/12/07 07:59:40;;;;;;;;;;;;;;;-8.93;81.07;100529.38;4993285;28;19917;-68
2022/12/07 08:02:15;;;;;;;;;;;;;;;-8.92;82.17;100528.44;4993190;28;19941;-67
2022/12/07 08:04:41;;;;;;;;;;;;;;;-8.77;82.07;100521.72;4993607;28;19968;-67
2022/12/07 08:07:06;;;;;;;;;;;;;;;-8.71;81.52;100515.38;4993295;28;20376;-68
2022/12/07 08:09:31;;;;;;;;;;;;;;;-8.58;81.63;100516.50;4993458;28;20052;-68
2022/12/07 08:11:57;;;;;;;;;;;;;;;-8.44;80.96;100514.13;5005755;28;19917;-67
2022/12/07 08:14:22;;;;;;;;;;;;;;;-8.43;80.55;100514.94;5011695;28;20012;-68
2022/12/07 08:16:48;;;;;;;;;;;;;;;-8.54;80.63;100518.06;5013082;28;19924;-67
2022/12/07 08:19:13;;;;;;;;;;;;;;;-8.60;80.86;100513.13;5011992;28;20292;-67
2022/12/07 08:21:38;;;;;;;;;;;;;;;-8.74;80.96;100526.78;5012606;28;19918;-67
2022/12/07 08:24:04;;;;;;;;;;;;;;;-8.86;81.16;100522.13;4994898;28;19921;-67
2022/12/07 08:26:29;;;;;;;;;;;;;;;-8.94;81.68;100521.63;5011249;28;19939;-68
2022/12/07 08:28:56;;;;;;;;;;;;;;;-8.92;82.55;100517.19;5012068;28;19971;-67
2022/12/07 08:31:22;;;;;;;;;;;;;;;-8.98;81.76;100515.72;5003428;28;19914;-68
2022/12/07 08:33:48;;;;;;;;;;;;;;;-8.87;82.84;100513.47;4992288;28;19964;-68
2022/12/07 08:36:13;;;;;;;;;;;;;;;-8.87;81.77;100516.06;4992483;28;19920;-67
2022/12/07 08:38:39;;;;;;;;;;;;;;;-8.94;82.32;100522.47;4992460;28;19925;-67
2022/12/07 08:41:05;;;;;;;;;;;;;;;-8.99;82.62;100529.63;4992066;28;19957;-68
2022/12/07 08:43:30;;;;;;;;;;;;;;;-8.97;83.16;100523.47;4992847;28;19913;-67
2022/12/07 08:46:14;;;;;;;;;;;;;;;-8.79;82.93;100521.78;4992274;28;20297;-68
2022/12/07 08:48:52;;;;;;;;;;;;;;;-8.65;81.79;100513.34;4992311;28;19960;-67
2022/12/07 08:51:18;;;;;;;;;;;;;;;-8.66;81.60;100513.41;4992788;28;19961;-67
2022/12/07 08:53:44;;;;;;;;;;;;;;;-8.75;81.43;100512.06;4992153;28;19964;-68
2022/12/07 08:56:10;;;;;;;;;;;;;;;-8.77;81.79;100506.09;4992279;28;19918;-68
2022/12/07 08:58:38;;;;;;;;;;;;;;;-8.77;81.74;100501.72;4992357;28;19945;-67
2022/12/07 09:01:04;;;;;;;;;;;;;;;-8.83;81.72;100504.63;4992462;28;19957;-67
2022/12/07 09:03:29;;;;;;;;;;;;;;;-8.80;82.44;100507.09;4992413;28;19914;-67
2022/12/07 09:05:55;;;;;;;;;;;;;;;-8.75;82.68;100509.47;4992442;28;19920;-68
2022/12/07 09:08:22;;;;;;;;;;;;;;;-8.71;82.48;100505.84;5006172;28;19918;-67
2022/12/07 09:10:47;;;;;;;;;;;;;;;-8.66;81.84;100505.63;5011775;28;19937;-67
2022/12/07 09:13:12;;;;;;;;;;;;;;;-8.63;81.80;100508.09;5011698;28;19917;-68
2022/12/07 09:15:38;;;;;;;;;;;;;;;-8.68;81.63;100497.88;5011607;28;19914;-67
2022/12/07 09:18:03;;;;;;;;;;;;;;;-8.62;82.26;100499.34;5011667;28;19925;-67
2022/12/07 09:20:29;;;;;;;;;;;;;;;-8.57;82.41;100503.41;5011838;28;19913;-68
2022/12/07 09:22:54;;;;;;;;;;;;;;;-8.58;82.16;100503.50;5011842;28;19913;-68
2022/12/07 09:25:19;;;;;;;;;;;;;;;-8.58;82.44;100498.28;5011827;28;20570;-68
2022/12/07 09:27:44;;;;;;;;;;;;;;;-8.62;81.80;100499.34;5011707;28;19913;-68
2022/12/07 09:30:10;;;;;;;;;;;;;;;-8.61;82.00;100496.66;5010601;28;20439;-68
2022/12/07 09:32:35;;;;;;;;;;;;;;;-8.59;82.14;100494.00;4993447;28;19913;-67
2022/12/07 09:35:00;;;;;;;;;;;;;;;-8.58;82.39;100496.53;4990788;28;20017;-68
2022/12/07 09:37:25;;;;;;;;;;;;;;;-8.50;81.95;100490.16;4991031;28;19949;-68
2022/12/07 09:39:51;;;;;;;;;;;;;;;-8.45;82.55;100493.34;4992626;28;19940;-67
2022/12/07 09:42:36;;;;;;;;;;;;;;;-8.36;82.62;100495.50;4991627;28;19921;-67
2022/12/07 09:45:04;;;;;;;;;;;;;;;-8.21;82.16;100486.97;4992506;28;19914;-67
2022/12/07 09:47:30;;;;;;;;;;;;;;;-8.15;81.43;100487.56;4991994;28;19965;-67
2022/12/07 09:50:00;;;;;;;;;;;;;;;-8.09;80.72;100484.69;4991806;28;20321;-67
2022/12/07 09:52:28;;;;;;;;;;;;;;;-7.94;80.40;100481.34;4992217;28;20534;-68
2022/12/07 09:54:53;;;;;;;;;;;;;;;-7.83;79.79;100478.22;4990722;28;19914;-68
2022/12/07 09:57:24;;;;;;;;;;;;;;;-7.77;80.08;100462.25;4992388;28;19976;-68
2022/12/07 09:59:49;;;;;;;;;;;;;;;-7.67;79.57;100462.63;4992235;28;20548;-67
2022/12/07 10:02:27;;;;;;;;;;;;;;;-7.62;79.03;100461.47;4991135;28;19989;-67
2022/12/07 10:04:53;;;;;;;;;;;;;;;-7.58;78.91;100459.56;5008376;28;20434;-67
2022/12/07 10:07:20;;;;;;;;;;;;;;;-7.45;78.27;100460.59;5014948;28;19941;-68
2022/12/07 10:09:45;;;;;;;;;;;;;;;-7.29;78.02;100450.25;5015213;28;19968;-67
2022/12/07 10:12:11;;;;;;;;;;;;;;;-7.30;77.78;100450.31;5013906;28;19913;-67
2022/12/07 10:14:38;;;;;;;;;;;;;;;-7.31;78.05;100444.25;5015414;28;20309;-68
2022/12/07 10:17:23;;;;;;;;;;;;;;;-7.23;77.47;100443.84;5015286;28;19941;-67
2022/12/07 10:19:48;;;;;;;;;;;;;;;-7.13;76.86;100439.00;5014717;28;19921;-67
2022/12/07 10:22:15;;;;;;;;;;;;;;;-7.01;76.09;100431.34;5014961;28;20249;-67
2022/12/07 10:24:42;;;;;;;;;;;;;;;-6.89;76.19;100440.31;5015177;28;19961;-67
2022/12/07 10:27:18;;;;;;;;;;;;;;;-6.83;75.89;100433.91;5013702;28;19913;-68
2022/12/07 10:29:48;;;;;;;;;;;;;;;-6.77;76.39;100432.75;5014278;28;19928;-67
2022/12/07 10:32:16;;;;;;;;;;;;;;;-6.66;75.76;100427.78;5000676;28;20363;-68
2022/12/07 10:34:42;;;;;;;;;;;;;;;-6.54;74.81;100421.84;4995202;28;20247;-68
2022/12/07 10:37:14;;;;;;;;;;;;;;;-6.46;75.85;100422.28;4995053;28;19920;-68
2022/12/07 10:39:47;;;;;;;;;;;;;;;-6.32;76.48;100421.50;4994786;28;19925;-67
2022/12/07 10:42:16;;;;;;;;;;;;;;;-6.17;76.05;100432.84;4993970;28;19925;-67
2022/12/07 10:44:43;;;;;;;;;;;;;;;-6.07;75.89;100427.97;4994959;28;20294;-67
2022/12/07 10:47:11;;;;;;;;;;;;;;;-5.85;75.20;100427.50;4994721;28;19920;-67
2022/12/07 10:49:47;;;;;;;;;;;;;;;-5.54;75.52;100425.69;4994144;28;19968;-68
2022/12/07 10:52:39;;;;;;;;;;;;;;;-5.14;74.01;100420.69;4994171;28;19953;-67
2022/12/07 10:55:04;;;;;;;;;;;;;;;-4.78;72.71;100404.44;4992890;28;19967;-66
2022/12/07 10:57:41;;;;;;;;;;;;;;;-4.49;71.55;100399.16;4994284;28;20016;-66
2022/12/07 11:00:25;;;;;;;;;;;;;;;-4.20;69.68;100391.16;5002302;28;20000;-66
2022/12/07 11:03:05;;;;;;;;;;;;;;;-3.99;70.19;100391.50;5014092;28;20368;-67
2022/12/07 11:05:38;;;;;;;;;;;;;;;-3.82;69.85;100396.50;5013997;28;19913;-67
2022/12/07 11:08:11;;;;;;;;;;;;;;;-3.65;69.19;100397.97;5012635;28;20337;-66
2022/12/07 11:10:57;;;;;;;;;;;;;;;-3.51;68.23;100391.78;5014081;28;19937;-66
2022/12/07 11:13:25;;;;;;;;;;;;;;;-3.31;70.23;100385.16;5013798;28;19913;-66
2022/12/07 11:16:10;;;;;;;;;;;;;;;-3.07;67.50;100387.03;5014116;28;19921;-66
2022/12/07 11:18:35;;;;;;;;;;;;;;;-0.20;63.70;100377.47;5008661;28;19928;-66
2022/12/07 11:21:33;;;;;;;;;;;;;;;4.23;52.30;100357.34;5013710;28;19913;-67
2022/12/07 11:24:18;;;;;;;;;;;;;;;6.79;44.22;100347.91;5002106;28;20261;-66
2022/12/07 11:26:44;;;;;;;;;;;;;;;8.20;39.11;100345.22;5013793;28;20007;-66
2022/12/07 11:29:23;;;;;;;;;;;;;;;8.95;37.49;100340.78;5012883;28;20020;-66
2022/12/07 11:31:52;;;;;;;;;;;;;;;9.49;36.60;100340.44;5003143;28;20102;-66
2022/12/07 11:34:35;;;;;;;;;;;;;;;9.74;31.66;100334.69;4994413;28;20271;-66
2022/12/07 11:37:02;;;;;;;;;;;;;;;7.87;36.70;100337.47;4992752;28;19914;-67
2022/12/07 11:39:34;;;;;;;;;;;;;;;4.06;45.62;100346.59;4992512;28;19914;-66
2022/12/07 11:42:02;;;;;;;;;;;;;;;1.88;51.51;100341.00;4993175;28;19936;-66
2022/12/07 11:44:36;;;;;;;;;;;;;;;0.88;53.70;100337.50;4993432;28;19920;-66
2022/12/07 11:47:01;;;;;;;;;;;;;;;0.14;56.30;100338.53;4991765;28;19921;-67
2022/12/07 11:49:51;;;;;;;;;;;;;;;-0.62;51.30;100336.00;4992519;28;19918;-67
2022/12/07 11:52:30;;;;;;;;;;;;;;;-1.27;58.13;100344.75;4991800;28;20377;-67
2022/12/07 11:54:57;;;;;;;;;;;;;;;-1.70;59.68;100335.75;4993093;28;19921;-66
2022/12/07 11:57:37;;;;;;;;;;;;;;;-1.95;61.12;100340.25;5009343;28;19917;-66
2022/12/07 12:00:07;;;;;;;;;;;;;;;-2.18;63.86;100339.34;5012753;28;20250;-66
2022/12/07 12:02:47;;;;;;;;;;;;;;;-2.31;63.20;100330.69;5013061;28;19964;-67
2022/12/07 12:05:15;;;;;;;;;;;;;;;-2.55;62.60;100334.19;5012998;28;20265;-67
2022/12/07 12:07:42;;;;;;;;;;;;;;;-2.74;59.58;100326.81;5012496;28;19928;-67
2022/12/07 12:10:16;;;;;;;;;;;;;;;-2.87;63.95;100333.91;5012862;28;19914;-67
2022/12/07 12:13:03;;;;;;;;;;;;;;;-3.01;64.76;100321.78;5012543;28;19913;-67
2022/12/07 12:15:48;;;;;;;;;;;;;;;-3.07;64.34;100331.84;5012423;28;19913;-66
2022/12/07 12:18:22;;;;;;;;;;;;;;;-3.13;66.78;100323.47;5011166;28;19921;-67
2022/12/07 12:20:50;;;;;;;;;;;;;;;-3.23;64.37;100329.47;5012375;28;19995;-67
2022/12/07 12:23:24;;;;;;;;;;;;;;;-3.31;66.50;100322.13;5012229;28;20007;-66
2022/12/07 12:25:55;;;;;;;;;;;;;;;-3.42;65.90;100324.69;5012687;28;19920;-66
2022/12/07 12:28:23;;;;;;;;;;;;;;;-3.52;62.54;100319.25;5012579;28;20273;-67
2022/12/07 12:31:05;;;;;;;;;;;;;;;-3.57;63.33;100314.28;4999723;28;19918;-67
2022/12/07 12:33:31;;;;;;;;;;;;;;;-3.61;62.66;100315.47;4975564;28;19920;-68
2022/12/07 12:36:18;;;;;;;;;;;;;;;-3.59;64.47;100312.72;4993274;28;19913;-67
2022/12/07 12:38:53;;;;;;;;;;;;;;;-3.58;62.70;100306.56;4992759;28;19921;-67
2022/12/07 12:41:38;;;;;;;;;;;;;;;-3.55;66.89;100308.94;4992353;28;19952;-66
2022/12/07 12:44:23;;;;;;;;;;;;;;;-3.56;66.33;100305.47;4992802;28;19914;-67
2022/12/07 12:46:49;;;;;;;;;;;;;;;-3.64;62.91;100306.94;4981713;28;19921;-67